sensor_id;sensor_type;location;lat;lon;timestamp;P1;durP1;ratioP1;P2;durP2;ratioP2
76023;SDS011;64719;52.124;6.226;2024-03-23T00:52:15;34.10;;;11.18;;
76023;SDS011;64719;52.124;6.226;2024-03-23T00:54:41;35.42;;;10.40;;
76023;SDS011;64719;52.124;6.226;2024-03-23T00:57:07;32.22;;;9.73;;
76023;SDS011;64719;52.124;6.226;2024-03-23T00:59:33;25.15;;;9.20;;
76023;SDS011;64719;52.124;6.226;2024-03-23T01:01:59;38.07;;;11.03;;
76023;SDS011;64719;52.124;6.226;2024-03-23T01:04:25;37.38;;;10.93;;
76023;SDS011;64719;52.124;6.226;2024-03-23T01:06:50;37.47;;;10.90;;
76023;SDS011;64719;52.124;6.226;2024-03-23T01:09:18;39.88;;;12.70;;
76023;SDS011;64719;52.124;6.226;2024-03-23T01:11:43;32.67;;;11.10;;
76023;SDS011;64719;52.124;6.226;2024-03-23T01:14:10;31.70;;;9.75;;
76023;SDS011;64719;52.124;6.226;2024-03-23T01:16:35;35.55;;;10.35;;
76023;SDS011;64719;52.124;6.226;2024-03-23T01:19:01;38.85;;;10.05;;
76023;SDS011;64719;52.124;6.226;2024-03-23T01:21:27;31.80;;;9.98;;
76023;SDS011;64719;52.124;6.226;2024-03-23T01:23:53;25.98;;;10.25;;
76023;SDS011;64719;52.124;6.226;2024-03-23T01:26:20;30.20;;;9.88;;
76023;SDS011;64719;52.124;6.226;2024-03-23T01:28:47;29.95;;;10.50;;
76023;SDS011;64719;52.124;6.226;2024-03-23T01:31:12;38.23;;;10.80;;
76023;SDS011;64719;52.124;6.226;2024-03-23T01:33:39;30.05;;;11.35;;
76023;SDS011;64719;52.124;6.226;2024-03-23T01:36:04;30.33;;;10.33;;
76023;SDS011;64719;52.124;6.226;2024-03-23T01:38:30;31.42;;;9.95;;
76023;SDS011;64719;52.124;6.226;2024-03-23T01:40:56;34.60;;;9.70;;
76023;SDS011;64719;52.124;6.226;2024-03-23T01:43:24;34.00;;;10.35;;
76023;SDS011;64719;52.124;6.226;2024-03-23T01:45:50;34.70;;;10.18;;
76023;SDS011;64719;52.124;6.226;2024-03-23T01:48:18;31.10;;;9.45;;
76023;SDS011;64719;52.124;6.226;2024-03-23T01:50:44;31.35;;;9.48;;
76023;SDS011;64719;52.124;6.226;2024-03-23T01:53:10;30.58;;;9.52;;
76023;SDS011;64719;52.124;6.226;2024-03-23T01:55:36;31.77;;;9.70;;
76023;SDS011;64719;52.124;6.226;2024-03-23T01:58:02;30.73;;;9.88;;
76023;SDS011;64719;52.124;6.226;2024-03-23T02:00:29;29.92;;;10.15;;
76023;SDS011;64719;52.124;6.226;2024-03-23T02:02:55;33.42;;;10.27;;
76023;SDS011;64719;52.124;6.226;2024-03-23T02:05:21;32.63;;;10.80;;
76023;SDS011;64719;52.124;6.226;2024-03-23T02:07:47;38.97;;;10.45;;
76023;SDS011;64719;52.124;6.226;2024-03-23T02:10:13;30.00;;;10.33;;
76023;SDS011;64719;52.124;6.226;2024-03-23T02:12:40;33.33;;;10.20;;
76023;SDS011;64719;52.124;6.226;2024-03-23T02:15:05;31.30;;;9.70;;
76023;SDS011;64719;52.124;6.226;2024-03-23T02:17:33;35.20;;;10.48;;
76023;SDS011;64719;52.124;6.226;2024-03-23T02:19:59;26.67;;;9.45;;
76023;SDS011;64719;52.124;6.226;2024-03-23T02:22:25;32.72;;;10.82;;
76023;SDS011;64719;52.124;6.226;2024-03-23T02:25:00;40.45;;;12.30;;
76023;SDS011;64719;52.124;6.226;2024-03-23T02:27:27;36.53;;;11.55;;
76023;SDS011;64719;52.124;6.226;2024-03-23T02:29:53;32.00;;;11.35;;
76023;SDS011;64719;52.124;6.226;2024-03-23T02:32:19;42.22;;;11.60;;
76023;SDS011;64719;52.124;6.226;2024-03-23T02:34:44;31.53;;;10.53;;
76023;SDS011;64719;52.124;6.226;2024-03-23T02:37:11;39.88;;;12.23;;
76023;SDS011;64719;52.124;6.226;2024-03-23T02:39:36;38.13;;;12.32;;
76023;SDS011;64719;52.124;6.226;2024-03-23T02:42:04;37.50;;;12.35;;
76023;SDS011;64719;52.124;6.226;2024-03-23T02:44:30;39.28;;;13.20;;
76023;SDS011;64719;52.124;6.226;2024-03-23T02:46:56;39.10;;;13.63;;
76023;SDS011;64719;52.124;6.226;2024-03-23T02:49:21;41.23;;;14.37;;
76023;SDS011;64719;52.124;6.226;2024-03-23T02:51:48;43.60;;;14.60;;
76023;SDS011;64719;52.124;6.226;2024-03-23T02:54:13;48.70;;;14.75;;
76023;SDS011;64719;52.124;6.226;2024-03-23T02:56:40;40.88;;;15.48;;
76023;SDS011;64719;52.124;6.226;2024-03-23T02:59:06;43.47;;;13.73;;
76023;SDS011;64719;52.124;6.226;2024-03-23T03:01:33;41.00;;;14.40;;
76023;SDS011;64719;52.124;6.226;2024-03-23T03:03:58;43.07;;;14.57;;
76023;SDS011;64719;52.124;6.226;2024-03-23T03:06:24;52.25;;;15.73;;
76023;SDS011;64719;52.124;6.226;2024-03-23T03:08:50;53.13;;;16.85;;
76023;SDS011;64719;52.124;6.226;2024-03-23T03:11:16;47.03;;;17.15;;
76023;SDS011;64719;52.124;6.226;2024-03-23T03:13:41;54.73;;;17.07;;
76023;SDS011;64719;52.124;6.226;2024-03-23T03:16:09;52.55;;;17.85;;
76023;SDS011;64719;52.124;6.226;2024-03-23T03:18:35;48.30;;;17.67;;
76023;SDS011;64719;52.124;6.226;2024-03-23T03:21:01;50.15;;;17.25;;
76023;SDS011;64719;52.124;6.226;2024-03-23T03:23:27;47.38;;;16.30;;
76023;SDS011;64719;52.124;6.226;2024-03-23T03:25:54;53.78;;;18.77;;
76023;SDS011;64719;52.124;6.226;2024-03-23T03:28:19;61.38;;;19.92;;
76023;SDS011;64719;52.124;6.226;2024-03-23T03:30:46;66.65;;;21.23;;
76023;SDS011;64719;52.124;6.226;2024-03-23T03:33:12;64.57;;;20.60;;
76023;SDS011;64719;52.124;6.226;2024-03-23T03:35:38;63.83;;;22.50;;
76023;SDS011;64719;52.124;6.226;2024-03-23T03:38:04;65.38;;;20.60;;
76023;SDS011;64719;52.124;6.226;2024-03-23T03:40:30;69.32;;;22.63;;
76023;SDS011;64719;52.124;6.226;2024-03-23T03:42:56;70.88;;;23.10;;
76023;SDS011;64719;52.124;6.226;2024-03-23T03:45:22;73.70;;;24.30;;
76023;SDS011;64719;52.124;6.226;2024-03-23T03:47:47;70.50;;;23.33;;
76023;SDS011;64719;52.124;6.226;2024-03-23T03:50:15;75.88;;;25.17;;
76023;SDS011;64719;52.124;6.226;2024-03-23T03:52:40;76.15;;;24.80;;
76023;SDS011;64719;52.124;6.226;2024-03-23T03:55:12;72.43;;;24.27;;
76023;SDS011;64719;52.124;6.226;2024-03-23T03:57:37;67.78;;;23.05;;
76023;SDS011;64719;52.124;6.226;2024-03-23T04:00:04;72.40;;;22.45;;
76023;SDS011;64719;52.124;6.226;2024-03-23T04:02:30;68.20;;;24.05;;
76023;SDS011;64719;52.124;6.226;2024-03-23T04:04:56;61.50;;;21.92;;
76023;SDS011;64719;52.124;6.226;2024-03-23T04:07:23;64.05;;;22.58;;
76023;SDS011;64719;52.124;6.226;2024-03-23T04:09:49;72.80;;;22.85;;
76023;SDS011;64719;52.124;6.226;2024-03-23T04:12:15;61.57;;;22.97;;
76023;SDS011;64719;52.124;6.226;2024-03-23T04:14:41;62.72;;;21.90;;
76023;SDS011;64719;52.124;6.226;2024-03-23T04:17:07;73.22;;;24.05;;
76023;SDS011;64719;52.124;6.226;2024-03-23T04:19:33;67.00;;;21.63;;
76023;SDS011;64719;52.124;6.226;2024-03-23T04:21:58;66.20;;;22.10;;
76023;SDS011;64719;52.124;6.226;2024-03-23T04:24:26;73.88;;;23.80;;
76023;SDS011;64719;52.124;6.226;2024-03-23T04:26:51;69.90;;;22.17;;
76023;SDS011;64719;52.124;6.226;2024-03-23T04:29:18;60.10;;;24.00;;
76023;SDS011;64719;52.124;6.226;2024-03-23T04:31:44;63.80;;;20.73;;
76023;SDS011;64719;52.124;6.226;2024-03-23T04:34:10;58.53;;;20.88;;
76023;SDS011;64719;52.124;6.226;2024-03-23T04:36:36;67.53;;;22.47;;
76023;SDS011;64719;52.124;6.226;2024-03-23T04:39:02;69.07;;;21.30;;
76023;SDS011;64719;52.124;6.226;2024-03-23T04:41:30;53.65;;;20.33;;
76023;SDS011;64719;52.124;6.226;2024-03-23T04:43:56;67.00;;;20.63;;
76023;SDS011;64719;52.124;6.226;2024-03-23T04:46:22;56.47;;;20.63;;
76023;SDS011;64719;52.124;6.226;2024-03-23T04:48:48;61.10;;;21.00;;
76023;SDS011;64719;52.124;6.226;2024-03-23T04:51:20;56.03;;;19.65;;
76023;SDS011;64719;52.124;6.226;2024-03-23T04:53:46;58.15;;;21.10;;
76023;SDS011;64719;52.124;6.226;2024-03-23T04:56:13;51.25;;;19.38;;
76023;SDS011;64719;52.124;6.226;2024-03-23T04:58:40;61.05;;;19.23;;
76023;SDS011;64719;52.124;6.226;2024-03-23T05:01:06;52.47;;;17.90;;
76023;SDS011;64719;52.124;6.226;2024-03-23T05:03:32;55.40;;;18.30;;
76023;SDS011;64719;52.124;6.226;2024-03-23T05:05:57;54.57;;;19.10;;
76023;SDS011;64719;52.124;6.226;2024-03-23T05:08:24;45.25;;;17.23;;
76023;SDS011;64719;52.124;6.226;2024-03-23T05:10:49;54.93;;;18.47;;
76023;SDS011;64719;52.124;6.226;2024-03-23T05:13:16;44.92;;;18.13;;
76023;SDS011;64719;52.124;6.226;2024-03-23T05:15:42;44.00;;;17.93;;
76023;SDS011;64719;52.124;6.226;2024-03-23T05:18:09;47.80;;;18.27;;
76023;SDS011;64719;52.124;6.226;2024-03-23T05:20:35;54.03;;;17.90;;
76023;SDS011;64719;52.124;6.226;2024-03-23T05:23:01;56.00;;;17.73;;
76023;SDS011;64719;52.124;6.226;2024-03-23T05:25:27;49.73;;;17.93;;
76023;SDS011;64719;52.124;6.226;2024-03-23T05:27:53;51.10;;;17.35;;
76023;SDS011;64719;52.124;6.226;2024-03-23T05:30:18;57.80;;;17.33;;
76023;SDS011;64719;52.124;6.226;2024-03-23T05:32:46;44.35;;;15.85;;
76023;SDS011;64719;52.124;6.226;2024-03-23T05:35:11;41.63;;;16.17;;
76023;SDS011;64719;52.124;6.226;2024-03-23T05:37:38;46.20;;;16.20;;
76023;SDS011;64719;52.124;6.226;2024-03-23T05:40:03;50.83;;;15.87;;
76023;SDS011;64719;52.124;6.226;2024-03-23T05:42:30;37.63;;;15.10;;
76023;SDS011;64719;52.124;6.226;2024-03-23T05:44:55;37.13;;;13.77;;
76023;SDS011;64719;52.124;6.226;2024-03-23T05:47:22;43.33;;;14.70;;
76023;SDS011;64719;52.124;6.226;2024-03-23T05:49:48;41.30;;;14.23;;
76023;SDS011;64719;52.124;6.226;2024-03-23T05:52:16;38.83;;;13.02;;
76023;SDS011;64719;52.124;6.226;2024-03-23T05:54:42;36.70;;;12.85;;
76023;SDS011;64719;52.124;6.226;2024-03-23T05:57:08;38.45;;;12.38;;
76023;SDS011;64719;52.124;6.226;2024-03-23T05:59:34;26.88;;;10.27;;
76023;SDS011;64719;52.124;6.226;2024-03-23T06:02:00;34.42;;;10.90;;
76023;SDS011;64719;52.124;6.226;2024-03-23T06:04:25;23.60;;;9.97;;
76023;SDS011;64719;52.124;6.226;2024-03-23T06:06:53;26.98;;;10.82;;
76023;SDS011;64719;52.124;6.226;2024-03-23T06:09:18;33.78;;;10.73;;
76023;SDS011;64719;52.124;6.226;2024-03-23T06:11:45;20.48;;;9.18;;
76023;SDS011;64719;52.124;6.226;2024-03-23T06:14:10;27.70;;;8.90;;
76023;SDS011;64719;52.124;6.226;2024-03-23T06:16:37;23.25;;;7.63;;
76023;SDS011;64719;52.124;6.226;2024-03-23T06:19:03;17.60;;;7.30;;
76023;SDS011;64719;52.124;6.226;2024-03-23T06:21:31;17.15;;;6.50;;
76023;SDS011;64719;52.124;6.226;2024-03-23T06:23:58;14.77;;;6.32;;
76023;SDS011;64719;52.124;6.226;2024-03-23T06:26:24;11.63;;;5.53;;
76023;SDS011;64719;52.124;6.226;2024-03-23T06:28:50;15.10;;;5.23;;
76023;SDS011;64719;52.124;6.226;2024-03-23T06:31:16;15.25;;;5.55;;
76023;SDS011;64719;52.124;6.226;2024-03-23T06:33:41;16.00;;;4.65;;
76023;SDS011;64719;52.124;6.226;2024-03-23T06:36:08;19.33;;;5.15;;
76023;SDS011;64719;52.124;6.226;2024-03-23T06:38:34;13.43;;;4.10;;
76023;SDS011;64719;52.124;6.226;2024-03-23T06:41:03;6.80;;;3.50;;
76023;SDS011;64719;52.124;6.226;2024-03-23T06:45:55;8.27;;;3.28;;
76023;SDS011;64719;52.124;6.226;2024-03-23T06:48:21;9.32;;;3.88;;
76023;SDS011;64719;52.124;6.226;2024-03-23T06:50:47;7.90;;;3.08;;
76023;SDS011;64719;52.124;6.226;2024-03-23T06:53:12;7.50;;;3.07;;
76023;SDS011;64719;52.124;6.226;2024-03-23T06:55:39;13.38;;;3.42;;
76023;SDS011;64719;52.124;6.226;2024-03-23T06:58:06;11.07;;;2.83;;
76023;SDS011;64719;52.124;6.226;2024-03-23T07:00:32;15.73;;;3.40;;
76023;SDS011;64719;52.124;6.226;2024-03-23T07:02:58;12.68;;;3.45;;
76023;SDS011;64719;52.124;6.226;2024-03-23T07:05:24;8.88;;;3.17;;
76023;SDS011;64719;52.124;6.226;2024-03-23T07:07:50;9.88;;;3.30;;
76023;SDS011;64719;52.124;6.226;2024-03-23T07:10:16;8.00;;;2.85;;
76023;SDS011;64719;52.124;6.226;2024-03-23T07:12:41;8.80;;;2.40;;
76023;SDS011;64719;52.124;6.226;2024-03-23T07:15:09;6.07;;;2.10;;
76023;SDS011;64719;52.124;6.226;2024-03-23T07:17:35;10.23;;;2.60;;
76023;SDS011;64719;52.124;6.226;2024-03-23T07:20:01;11.25;;;2.80;;
76023;SDS011;64719;52.124;6.226;2024-03-23T07:22:28;8.90;;;2.83;;
76023;SDS011;64719;52.124;6.226;2024-03-23T07:24:55;8.10;;;2.38;;
76023;SDS011;64719;52.124;6.226;2024-03-23T07:27:20;11.85;;;2.75;;
76023;SDS011;64719;52.124;6.226;2024-03-23T07:29:48;7.68;;;2.47;;
76023;SDS011;64719;52.124;6.226;2024-03-23T07:32:15;10.88;;;2.80;;
76023;SDS011;64719;52.124;6.226;2024-03-23T07:34:42;13.05;;;2.13;;
76023;SDS011;64719;52.124;6.226;2024-03-23T07:37:09;9.00;;;2.70;;
76023;SDS011;64719;52.124;6.226;2024-03-23T07:39:35;7.82;;;2.50;;
76023;SDS011;64719;52.124;6.226;2024-03-23T07:42:01;9.90;;;2.33;;
76023;SDS011;64719;52.124;6.226;2024-03-23T07:44:27;9.75;;;2.97;;
76023;SDS011;64719;52.124;6.226;2024-03-23T07:46:52;8.73;;;2.40;;
76023;SDS011;64719;52.124;6.226;2024-03-23T07:49:20;7.22;;;2.80;;
76023;SDS011;64719;52.124;6.226;2024-03-23T07:51:45;7.82;;;2.28;;
76023;SDS011;64719;52.124;6.226;2024-03-23T07:54:12;9.25;;;2.30;;
76023;SDS011;64719;52.124;6.226;2024-03-23T07:56:37;7.07;;;2.50;;
76023;SDS011;64719;52.124;6.226;2024-03-23T07:59:03;8.30;;;2.63;;
76023;SDS011;64719;52.124;6.226;2024-03-23T08:01:29;6.70;;;2.03;;
76023;SDS011;64719;52.124;6.226;2024-03-23T08:03:55;9.45;;;2.80;;
76023;SDS011;64719;52.124;6.226;2024-03-23T08:06:22;8.10;;;2.27;;
76023;SDS011;64719;52.124;6.226;2024-03-23T08:08:54;11.80;;;2.75;;
76023;SDS011;64719;52.124;6.226;2024-03-23T08:11:24;7.95;;;2.55;;
76023;SDS011;64719;52.124;6.226;2024-03-23T08:13:51;8.77;;;2.65;;
76023;SDS011;64719;52.124;6.226;2024-03-23T08:16:16;8.97;;;2.70;;
76023;SDS011;64719;52.124;6.226;2024-03-23T08:18:42;9.75;;;2.75;;
76023;SDS011;64719;52.124;6.226;2024-03-23T08:21:08;10.82;;;2.47;;
76023;SDS011;64719;52.124;6.226;2024-03-23T08:23:35;6.68;;;2.47;;
76023;SDS011;64719;52.124;6.226;2024-03-23T08:26:01;5.78;;;2.53;;
76023;SDS011;64719;52.124;6.226;2024-03-23T08:28:28;12.48;;;2.55;;
76023;SDS011;64719;52.124;6.226;2024-03-23T08:30:54;10.07;;;2.50;;
76023;SDS011;64719;52.124;6.226;2024-03-23T08:33:20;7.47;;;2.20;;
76023;SDS011;64719;52.124;6.226;2024-03-23T08:35:52;7.97;;;2.95;;
76023;SDS011;64719;52.124;6.226;2024-03-23T08:38:19;8.05;;;2.33;;
76023;SDS011;64719;52.124;6.226;2024-03-23T08:40:45;7.20;;;2.30;;
76023;SDS011;64719;52.124;6.226;2024-03-23T08:43:12;6.25;;;1.88;;
76023;SDS011;64719;52.124;6.226;2024-03-23T08:45:37;9.38;;;2.42;;
76023;SDS011;64719;52.124;6.226;2024-03-23T08:48:04;12.60;;;3.00;;
76023;SDS011;64719;52.124;6.226;2024-03-23T08:50:29;10.48;;;2.50;;
76023;SDS011;64719;52.124;6.226;2024-03-23T08:52:55;6.95;;;2.20;;
76023;SDS011;64719;52.124;6.226;2024-03-23T08:55:21;6.50;;;1.97;;
76023;SDS011;64719;52.124;6.226;2024-03-23T08:57:48;6.88;;;1.92;;
76023;SDS011;64719;52.124;6.226;2024-03-23T09:00:14;7.88;;;2.42;;
76023;SDS011;64719;52.124;6.226;2024-03-23T09:02:40;9.20;;;2.05;;
76023;SDS011;64719;52.124;6.226;2024-03-23T09:05:06;5.03;;;1.50;;
76023;SDS011;64719;52.124;6.226;2024-03-23T09:07:33;6.72;;;2.22;;
76023;SDS011;64719;52.124;6.226;2024-03-23T09:09:59;7.23;;;2.03;;
76023;SDS011;64719;52.124;6.226;2024-03-23T09:12:25;9.93;;;2.10;;
76023;SDS011;64719;52.124;6.226;2024-03-23T09:14:52;8.07;;;1.80;;
76023;SDS011;64719;52.124;6.226;2024-03-23T09:17:19;5.68;;;1.70;;
76023;SDS011;64719;52.124;6.226;2024-03-23T09:19:44;7.68;;;2.05;;
76023;SDS011;64719;52.124;6.226;2024-03-23T09:22:10;7.25;;;2.05;;
76023;SDS011;64719;52.124;6.226;2024-03-23T09:24:36;8.00;;;1.70;;
76023;SDS011;64719;52.124;6.226;2024-03-23T09:27:02;6.05;;;1.60;;
76023;SDS011;64719;52.124;6.226;2024-03-23T09:29:28;7.18;;;2.15;;
76023;SDS011;64719;52.124;6.226;2024-03-23T09:31:56;8.00;;;1.63;;
76023;SDS011;64719;52.124;6.226;2024-03-23T09:34:21;4.85;;;1.55;;
76023;SDS011;64719;52.124;6.226;2024-03-23T09:36:50;6.60;;;1.65;;
76023;SDS011;64719;52.124;6.226;2024-03-23T09:39:16;4.45;;;1.63;;
76023;SDS011;64719;52.124;6.226;2024-03-23T09:41:42;6.90;;;1.60;;
76023;SDS011;64719;52.124;6.226;2024-03-23T09:44:09;4.15;;;1.48;;
76023;SDS011;64719;52.124;6.226;2024-03-23T09:46:34;6.50;;;1.35;;
76023;SDS011;64719;52.124;6.226;2024-03-23T09:49:02;8.68;;;1.65;;
76023;SDS011;64719;52.124;6.226;2024-03-23T09:51:29;8.23;;;1.80;;
76023;SDS011;64719;52.124;6.226;2024-03-23T09:53:55;8.40;;;1.77;;
76023;SDS011;64719;52.124;6.226;2024-03-23T09:56:21;5.97;;;1.65;;
76023;SDS011;64719;52.124;6.226;2024-03-23T09:58:48;5.78;;;1.50;;
76023;SDS011;64719;52.124;6.226;2024-03-23T10:01:13;5.90;;;1.40;;
76023;SDS011;64719;52.124;6.226;2024-03-23T10:03:43;5.40;;;1.20;;
76023;SDS011;64719;52.124;6.226;2024-03-23T10:06:10;6.43;;;1.52;;
76023;SDS011;64719;52.124;6.226;2024-03-23T10:08:36;4.63;;;1.27;;
76023;SDS011;64719;52.124;6.226;2024-03-23T10:11:12;4.68;;;1.67;;
76023;SDS011;64719;52.124;6.226;2024-03-23T10:13:39;6.88;;;1.50;;
76023;SDS011;64719;52.124;6.226;2024-03-23T10:16:06;5.93;;;1.60;;
76023;SDS011;64719;52.124;6.226;2024-03-23T10:18:32;6.18;;;1.70;;
76023;SDS011;64719;52.124;6.226;2024-03-23T10:21:09;5.70;;;1.45;;
76023;SDS011;64719;52.124;6.226;2024-03-23T10:23:37;7.47;;;1.08;;
76023;SDS011;64719;52.124;6.226;2024-03-23T10:26:16;5.53;;;1.20;;
76023;SDS011;64719;52.124;6.226;2024-03-23T10:28:55;4.22;;;1.00;;
76023;SDS011;64719;52.124;6.226;2024-03-23T10:31:23;2.50;;;0.93;;
76023;SDS011;64719;52.124;6.226;2024-03-23T10:33:50;4.22;;;1.00;;
76023;SDS011;64719;52.124;6.226;2024-03-23T10:36:16;3.38;;;1.30;;
76023;SDS011;64719;52.124;6.226;2024-03-23T10:38:44;2.35;;;1.20;;
76023;SDS011;64719;52.124;6.226;2024-03-23T10:41:09;4.20;;;1.35;;
76023;SDS011;64719;52.124;6.226;2024-03-23T10:43:36;5.93;;;1.15;;
76023;SDS011;64719;52.124;6.226;2024-03-23T10:46:02;7.97;;;1.55;;
76023;SDS011;64719;52.124;6.226;2024-03-23T10:48:28;4.40;;;1.33;;
76023;SDS011;64719;52.124;6.226;2024-03-23T10:50:53;6.00;;;1.20;;
76023;SDS011;64719;52.124;6.226;2024-03-23T10:53:21;4.43;;;1.20;;
76023;SDS011;64719;52.124;6.226;2024-03-23T10:55:50;3.78;;;1.05;;
76023;SDS011;64719;52.124;6.226;2024-03-23T10:58:17;4.43;;;1.25;;
76023;SDS011;64719;52.124;6.226;2024-03-23T11:00:43;2.97;;;1.10;;
76023;SDS011;64719;52.124;6.226;2024-03-23T11:05:49;5.63;;;1.40;;
76023;SDS011;64719;52.124;6.226;2024-03-23T11:08:30;4.07;;;1.60;;
76023;SDS011;64719;52.124;6.226;2024-03-23T11:11:11;4.63;;;1.40;;
76023;SDS011;64719;52.124;6.226;2024-03-23T11:13:37;4.72;;;1.45;;
76023;SDS011;64719;52.124;6.226;2024-03-23T11:16:12;7.30;;;1.73;;
76023;SDS011;64719;52.124;6.226;2024-03-23T11:18:38;6.65;;;1.48;;
76023;SDS011;64719;52.124;6.226;2024-03-23T11:21:04;4.87;;;1.43;;
76023;SDS011;64719;52.124;6.226;2024-03-23T11:23:31;5.55;;;1.50;;
76023;SDS011;64719;52.124;6.226;2024-03-23T11:25:57;6.25;;;1.75;;
76023;SDS011;64719;52.124;6.226;2024-03-23T11:28:23;3.78;;;1.50;;
76023;SDS011;64719;52.124;6.226;2024-03-23T11:30:49;5.60;;;1.67;;
76023;SDS011;64719;52.124;6.226;2024-03-23T11:33:15;4.72;;;1.63;;
76023;SDS011;64719;52.124;6.226;2024-03-23T11:35:41;6.07;;;1.50;;
76023;SDS011;64719;52.124;6.226;2024-03-23T11:38:07;3.42;;;1.40;;
76023;SDS011;64719;52.124;6.226;2024-03-23T11:40:36;6.18;;;1.50;;
76023;SDS011;64719;52.124;6.226;2024-03-23T11:43:01;8.85;;;1.70;;
76023;SDS011;64719;52.124;6.226;2024-03-23T11:45:28;7.20;;;1.70;;
76023;SDS011;64719;52.124;6.226;2024-03-23T11:48:04;7.57;;;1.50;;
76023;SDS011;64719;52.124;6.226;2024-03-23T11:50:30;3.97;;;0.80;;
76023;SDS011;64719;52.124;6.226;2024-03-23T11:55:49;1.45;;;0.50;;
76023;SDS011;64719;52.124;6.226;2024-03-23T11:58:15;2.50;;;0.57;;
76023;SDS011;64719;52.124;6.226;2024-03-23T12:00:49;4.32;;;0.77;;
76023;SDS011;64719;52.124;6.226;2024-03-23T12:03:15;2.72;;;0.77;;
76023;SDS011;64719;52.124;6.226;2024-03-23T12:05:42;3.50;;;1.20;;
76023;SDS011;64719;52.124;6.226;2024-03-23T12:08:15;4.70;;;1.25;;
76023;SDS011;64719;52.124;6.226;2024-03-23T12:10:43;4.00;;;1.10;;
76023;SDS011;64719;52.124;6.226;2024-03-23T12:13:10;4.43;;;1.25;;
76023;SDS011;64719;52.124;6.226;2024-03-23T12:15:37;3.53;;;1.08;;
76023;SDS011;64719;52.124;6.226;2024-03-23T12:18:06;4.43;;;1.23;;
76023;SDS011;64719;52.124;6.226;2024-03-23T12:20:32;4.50;;;1.38;;
76023;SDS011;64719;52.124;6.226;2024-03-23T12:23:04;5.83;;;1.43;;
76023;SDS011;64719;52.124;6.226;2024-03-23T12:25:30;4.28;;;0.85;;
76023;SDS011;64719;52.124;6.226;2024-03-23T12:27:57;5.67;;;1.20;;
76023;SDS011;64719;52.124;6.226;2024-03-23T12:30:25;3.75;;;1.10;;
76023;SDS011;64719;52.124;6.226;2024-03-23T12:32:50;5.20;;;1.17;;
76023;SDS011;64719;52.124;6.226;2024-03-23T12:35:16;3.33;;;1.02;;
76023;SDS011;64719;52.124;6.226;2024-03-23T12:37:43;6.53;;;1.47;;
76023;SDS011;64719;52.124;6.226;2024-03-23T12:40:09;4.97;;;1.40;;
76023;SDS011;64719;52.124;6.226;2024-03-23T12:42:35;7.95;;;1.45;;
76023;SDS011;64719;52.124;6.226;2024-03-23T12:45:01;4.50;;;1.40;;
76023;SDS011;64719;52.124;6.226;2024-03-23T12:47:29;4.43;;;1.52;;
76023;SDS011;64719;52.124;6.226;2024-03-23T12:49:56;7.05;;;1.40;;
76023;SDS011;64719;52.124;6.226;2024-03-23T12:52:21;5.90;;;1.13;;
76023;SDS011;64719;52.124;6.226;2024-03-23T12:54:49;3.80;;;1.42;;
76023;SDS011;64719;52.124;6.226;2024-03-23T12:57:14;3.23;;;0.90;;
76023;SDS011;64719;52.124;6.226;2024-03-23T12:59:40;4.13;;;1.10;;
76023;SDS011;64719;52.124;6.226;2024-03-23T13:02:06;5.10;;;1.27;;
76023;SDS011;64719;52.124;6.226;2024-03-23T13:04:34;5.85;;;1.13;;
76023;SDS011;64719;52.124;6.226;2024-03-23T13:06:59;5.78;;;1.38;;
76023;SDS011;64719;52.124;6.226;2024-03-23T13:09:25;5.00;;;1.20;;
76023;SDS011;64719;52.124;6.226;2024-03-23T13:11:51;7.10;;;1.37;;
76023;SDS011;64719;52.124;6.226;2024-03-23T13:14:17;4.78;;;1.17;;
76023;SDS011;64719;52.124;6.226;2024-03-23T13:16:43;4.13;;;1.15;;
76023;SDS011;64719;52.124;6.226;2024-03-23T13:19:10;4.07;;;1.10;;
76023;SDS011;64719;52.124;6.226;2024-03-23T13:21:37;5.32;;;1.25;;
76023;SDS011;64719;52.124;6.226;2024-03-23T13:24:03;6.13;;;1.40;;
76023;SDS011;64719;52.124;6.226;2024-03-23T13:26:29;5.35;;;1.27;;
76023;SDS011;64719;52.124;6.226;2024-03-23T13:28:55;6.18;;;1.52;;
76023;SDS011;64719;52.124;6.226;2024-03-23T13:31:20;8.30;;;1.73;;
76023;SDS011;64719;52.124;6.226;2024-03-23T13:33:47;7.07;;;1.40;;
76023;SDS011;64719;52.124;6.226;2024-03-23T13:36:13;5.97;;;1.50;;
76023;SDS011;64719;52.124;6.226;2024-03-23T13:38:40;7.15;;;1.63;;
76023;SDS011;64719;52.124;6.226;2024-03-23T13:41:06;3.85;;;1.38;;
76023;SDS011;64719;52.124;6.226;2024-03-23T13:43:33;7.70;;;1.60;;
76023;SDS011;64719;52.124;6.226;2024-03-23T13:45:59;7.63;;;1.85;;
76023;SDS011;64719;52.124;6.226;2024-03-23T13:48:26;4.32;;;1.35;;
76023;SDS011;64719;52.124;6.226;2024-03-23T13:50:57;4.18;;;1.20;;
76023;SDS011;64719;52.124;6.226;2024-03-23T13:53:23;4.70;;;1.23;;
76023;SDS011;64719;52.124;6.226;2024-03-23T13:55:50;4.53;;;1.40;;
76023;SDS011;64719;52.124;6.226;2024-03-23T13:58:16;4.28;;;1.60;;
76023;SDS011;64719;52.124;6.226;2024-03-23T14:00:42;4.47;;;1.00;;
76023;SDS011;64719;52.124;6.226;2024-03-23T14:03:09;4.30;;;1.08;;
76023;SDS011;64719;52.124;6.226;2024-03-23T14:05:34;9.15;;;1.10;;
76023;SDS011;64719;52.124;6.226;2024-03-23T14:08:00;6.32;;;1.50;;
76023;SDS011;64719;52.124;6.226;2024-03-23T14:10:26;4.23;;;1.33;;
76023;SDS011;64719;52.124;6.226;2024-03-23T14:12:54;5.80;;;1.20;;
76023;SDS011;64719;52.124;6.226;2024-03-23T14:15:19;4.55;;;1.20;;
76023;SDS011;64719;52.124;6.226;2024-03-23T14:17:45;4.95;;;1.05;;
76023;SDS011;64719;52.124;6.226;2024-03-23T14:20:11;3.40;;;1.23;;
76023;SDS011;64719;52.124;6.226;2024-03-23T14:22:38;6.30;;;1.50;;
76023;SDS011;64719;52.124;6.226;2024-03-23T14:25:06;5.95;;;1.20;;
76023;SDS011;64719;52.124;6.226;2024-03-23T14:27:32;4.47;;;1.00;;
76023;SDS011;64719;52.124;6.226;2024-03-23T14:30:04;2.88;;;0.90;;
76023;SDS011;64719;52.124;6.226;2024-03-23T14:32:30;2.17;;;0.65;;
76023;SDS011;64719;52.124;6.226;2024-03-23T14:37:24;2.67;;;0.80;;
76023;SDS011;64719;52.124;6.226;2024-03-23T14:39:50;2.28;;;0.70;;
76023;SDS011;64719;52.124;6.226;2024-03-23T14:42:16;3.20;;;0.90;;
76023;SDS011;64719;52.124;6.226;2024-03-23T14:44:42;3.17;;;0.60;;
76023;SDS011;64719;52.124;6.226;2024-03-23T14:47:09;2.80;;;1.10;;
76023;SDS011;64719;52.124;6.226;2024-03-23T14:49:35;3.42;;;0.77;;
76023;SDS011;64719;52.124;6.226;2024-03-23T14:52:01;5.38;;;1.15;;
76023;SDS011;64719;52.124;6.226;2024-03-23T14:54:27;4.15;;;1.50;;
76023;SDS011;64719;52.124;6.226;2024-03-23T14:56:53;3.17;;;0.90;;
76023;SDS011;64719;52.124;6.226;2024-03-23T14:59:19;3.53;;;1.10;;
76023;SDS011;64719;52.124;6.226;2024-03-23T15:01:44;7.57;;;2.53;;
76023;SDS011;64719;52.124;6.226;2024-03-23T15:04:12;4.97;;;1.40;;
76023;SDS011;64719;52.124;6.226;2024-03-23T15:06:37;3.00;;;1.40;;
76023;SDS011;64719;52.124;6.226;2024-03-23T15:09:04;6.00;;;1.20;;
76023;SDS011;64719;52.124;6.226;2024-03-23T15:13:58;3.85;;;0.82;;
76023;SDS011;64719;52.124;6.226;2024-03-23T15:16:24;4.43;;;1.30;;
76023;SDS011;64719;52.124;6.226;2024-03-23T15:18:50;3.63;;;0.95;;
76023;SDS011;64719;52.124;6.226;2024-03-23T15:21:17;4.70;;;1.38;;
76023;SDS011;64719;52.124;6.226;2024-03-23T15:23:46;2.40;;;0.82;;
76023;SDS011;64719;52.124;6.226;2024-03-23T15:26:11;3.42;;;0.82;;
76023;SDS011;64719;52.124;6.226;2024-03-23T15:28:38;3.22;;;1.25;;
76023;SDS011;64719;52.124;6.226;2024-03-23T15:31:04;3.95;;;1.00;;
76023;SDS011;64719;52.124;6.226;2024-03-23T15:33:31;3.53;;;1.15;;
76023;SDS011;64719;52.124;6.226;2024-03-23T15:35:58;4.63;;;1.37;;
76023;SDS011;64719;52.124;6.226;2024-03-23T15:38:25;6.18;;;1.30;;